createdAt,value
2022-08-26T00:01:19.034Z,20.45
2022-08-26T00:03:55.410Z,20.39
2022-08-26T00:06:21.995Z,20.37
2022-08-26T00:08:48.927Z,20.35
2022-08-26T00:11:15.258Z,20.30
2022-08-26T00:13:52.893Z,20.29
2022-08-26T00:16:19.732Z,20.28
2022-08-26T00:18:46.369Z,20.31
2022-08-26T00:21:12.720Z,20.27
2022-08-26T00:23:39.440Z,20.20
2022-08-26T00:26:06.682Z,20.18
2022-08-26T00:28:35.382Z,20.17
2022-08-26T00:31:01.883Z,20.23
2022-08-26T00:33:28.357Z,20.21
2022-08-26T00:35:54.936Z,20.13
2022-08-26T00:38:22.255Z,20.18
2022-08-26T00:40:53.743Z,20.14
2022-08-26T00:43:21.783Z,20.07
2022-08-26T00:46:14.010Z,19.97
2022-08-26T00:48:43.826Z,20.09
2022-08-26T00:51:21.331Z,20.03
2022-08-26T00:53:53.589Z,19.93
2022-08-26T00:56:29.203Z,19.89
2022-08-26T00:58:58.700Z,19.94
2022-08-26T01:01:25.422Z,19.83
2022-08-26T01:03:52.392Z,19.80
2022-08-26T01:06:19.542Z,19.78
2022-08-26T01:08:45.916Z,19.74
2022-08-26T01:11:12.651Z,19.68
2022-08-26T01:13:39.973Z,19.76
2022-08-26T01:16:13.197Z,19.89
2022-08-26T01:18:41.597Z,19.85
2022-08-26T01:21:31.143Z,19.64
2022-08-26T01:23:58.378Z,19.62
2022-08-26T01:26:29.676Z,19.57
2022-08-26T01:28:58.893Z,19.56
2022-08-26T01:31:29.351Z,19.67
2022-08-26T01:34:10.317Z,19.63
2022-08-26T01:36:38.245Z,19.66
2022-08-26T01:39:06.012Z,19.60
2022-08-26T01:41:34.913Z,19.56
2022-08-26T01:44:03.145Z,19.54
2022-08-26T01:46:30.436Z,19.58
2022-08-26T01:49:00.398Z,19.56
2022-08-26T01:51:27.788Z,19.57
2022-08-26T01:53:54.963Z,19.65
2022-08-26T01:56:23.827Z,19.60
2022-08-26T01:59:02.617Z,19.65
2022-08-26T02:01:29.410Z,19.72
2022-08-26T02:04:09.952Z,19.67
2022-08-26T02:06:38.468Z,19.58
2022-08-26T02:09:06.633Z,19.66
2022-08-26T02:11:33.903Z,19.56
2022-08-26T02:14:09.804Z,19.45
2022-08-26T02:16:39.868Z,19.34
2022-08-26T02:19:17.029Z,19.29
2022-08-26T02:21:45.500Z,19.27
2022-08-26T02:24:19.264Z,19.50
2022-08-26T02:26:46.889Z,19.40
2022-08-26T02:29:24.102Z,19.22
2022-08-26T02:31:51.439Z,19.18
2022-08-26T02:34:26.183Z,19.19
2022-08-26T02:37:02.366Z,19.25
2022-08-26T02:39:31.041Z,19.33
2022-08-26T02:41:58.392Z,19.23
2022-08-26T02:44:25.531Z,19.14
2022-08-26T02:46:52.355Z,19.08
2022-08-26T02:49:21.621Z,19.16
2022-08-26T02:51:48.182Z,19.22
2022-08-26T02:54:14.528Z,19.38
2022-08-26T02:56:41.107Z,19.37
2022-08-26T02:59:08.235Z,19.40
2022-08-26T03:01:36.254Z,19.23
2022-08-26T03:04:04.674Z,19.13
2022-08-26T03:06:32.163Z,19.12
2022-08-26T03:08:59.154Z,19.09
2022-08-26T03:11:29.621Z,19.00
2022-08-26T03:13:59.529Z,18.85
2022-08-26T03:16:32.351Z,18.84
2022-08-26T03:19:00.333Z,18.82
2022-08-26T03:21:26.710Z,18.83
2022-08-26T03:23:53.404Z,18.86
2022-08-26T03:26:19.909Z,18.86
2022-08-26T03:28:46.514Z,18.81
2022-08-26T03:31:12.932Z,18.76
2022-08-26T03:33:39.490Z,18.77
2022-08-26T03:36:06.083Z,18.77
2022-08-26T03:38:32.469Z,18.76
2022-08-26T03:40:58.825Z,18.80
2022-08-26T03:43:25.218Z,18.84
2022-08-26T03:45:51.822Z,18.87
2022-08-26T03:48:19.005Z,19.00
2022-08-26T03:50:45.417Z,18.97
2022-08-26T03:53:15.135Z,19.05
2022-08-26T03:55:41.632Z,18.92
2022-08-26T03:58:08.057Z,18.86
2022-08-26T04:00:34.515Z,18.85
2022-08-26T04:03:02.564Z,18.77
2022-08-26T04:05:29.073Z,18.80
2022-08-26T04:07:55.821Z,18.81
2022-08-26T04:10:29.139Z,18.77
2022-08-26T04:12:58.884Z,18.73
2022-08-26T04:15:26.326Z,18.73
2022-08-26T04:17:53.051Z,18.69
2022-08-26T04:20:19.513Z,18.75
2022-08-26T04:22:46.137Z,18.86
2022-08-26T04:25:12.881Z,18.85
2022-08-26T04:27:39.253Z,18.84
2022-08-26T04:30:08.142Z,18.79
2022-08-26T04:32:35.265Z,18.77
2022-08-26T04:35:01.892Z,18.70
2022-08-26T04:37:28.307Z,18.67
2022-08-26T04:39:54.813Z,18.73
2022-08-26T04:42:23.303Z,18.63
2022-08-26T04:44:52.593Z,18.52
2022-08-26T04:47:19.013Z,18.44
2022-08-26T04:49:45.477Z,18.44
2022-08-26T04:52:11.859Z,18.51
2022-08-26T04:54:39.001Z,18.59
2022-08-26T04:57:08.462Z,18.64
2022-08-26T04:59:38.597Z,18.64
2022-08-26T05:02:06.410Z,18.58
2022-08-26T05:04:33.377Z,18.46
2022-08-26T05:07:02.299Z,18.53
2022-08-26T05:09:29.344Z,18.61
2022-08-26T05:11:57.058Z,18.80
2022-08-26T05:14:23.508Z,18.88
2022-08-26T05:16:50.128Z,18.87
2022-08-26T05:19:18.985Z,18.88
2022-08-26T05:21:47.254Z,18.85
2022-08-26T05:24:14.256Z,18.95
2022-08-26T05:26:40.852Z,19.20
2022-08-26T05:29:07.558Z,19.39
2022-08-26T05:31:34.713Z,19.38
2022-08-26T05:34:03.701Z,19.39
2022-08-26T05:36:32.269Z,19.43
2022-08-26T05:38:58.942Z,19.34
2022-08-26T05:41:36.295Z,19.29
2022-08-26T05:44:06.306Z,19.40
2022-08-26T05:46:33.808Z,19.50
2022-08-26T05:49:01.128Z,19.46
2022-08-26T05:51:27.518Z,19.51
2022-08-26T05:53:57.047Z,19.76
2022-08-26T05:56:25.888Z,20.19
2022-08-26T05:58:52.290Z,20.18
2022-08-26T06:01:21.622Z,20.15
2022-08-26T06:03:52.141Z,20.41
2022-08-26T06:06:27.246Z,20.70
2022-08-26T06:08:55.159Z,21.15
2022-08-26T06:11:24.079Z,21.77
2022-08-26T06:13:57.964Z,22.40
2022-08-26T06:16:28.162Z,22.99
2022-08-26T06:18:54.908Z,23.29
2022-08-26T06:21:28.166Z,23.59
2022-08-26T06:23:58.492Z,23.99
2022-08-26T06:26:25.485Z,24.14
2022-08-26T06:28:51.842Z,24.43
2022-08-26T06:31:18.682Z,24.77
2022-08-26T06:33:45.146Z,25.00
2022-08-26T06:36:20.703Z,24.69
2022-08-26T06:38:48.445Z,24.25
2022-08-26T06:41:16.435Z,24.00
2022-08-26T06:43:42.817Z,23.89
2022-08-26T06:46:12.070Z,23.81
2022-08-26T06:48:39.246Z,23.73
2022-08-26T06:51:15.130Z,23.56
2022-08-26T06:53:43.704Z,23.60
2022-08-26T06:56:11.239Z,23.55
2022-08-26T06:58:39.938Z,23.58
2022-08-26T07:01:16.209Z,23.67
2022-08-26T07:03:45.368Z,23.89
2022-08-26T07:06:13.361Z,24.05
2022-08-26T07:08:39.983Z,24.02
2022-08-26T07:11:09.319Z,23.97
2022-08-26T07:13:36.305Z,24.26
2022-08-26T07:16:07.021Z,24.18
2022-08-26T07:18:36.813Z,24.24
2022-08-26T07:21:08.498Z,24.21
2022-08-26T07:23:35.153Z,23.96
2022-08-26T07:26:13.565Z,23.90
2022-08-26T07:28:40.575Z,23.91
2022-08-26T07:31:09.644Z,24.02
2022-08-26T07:33:37.638Z,24.18
2022-08-26T07:36:07.229Z,24.31
2022-08-26T07:38:34.646Z,24.51
2022-08-26T07:41:01.056Z,24.67
2022-08-26T07:43:29.346Z,25.00
2022-08-26T07:45:55.977Z,25.07
2022-08-26T07:48:22.456Z,25.43
2022-08-26T07:50:50.586Z,25.79
2022-08-26T07:53:18.146Z,25.95
2022-08-26T07:55:46.274Z,26.24
2022-08-26T07:58:12.734Z,26.47
2022-08-26T08:00:39.141Z,26.55
2022-08-26T08:03:06.178Z,26.75
2022-08-26T08:05:33.769Z,26.71
2022-08-26T08:08:27.263Z,26.91
2022-08-26T08:10:49.482Z,27.19
2022-08-26T08:13:16.013Z,27.17
2022-08-26T08:15:42.557Z,27.25
2022-08-26T08:18:14.043Z,27.02
2022-08-26T08:20:47.629Z,27.01
2022-08-26T08:23:21.089Z,26.69
2022-08-26T08:25:48.071Z,27.02
2022-08-26T08:28:15.069Z,26.88
2022-08-26T08:30:42.023Z,26.85
2022-08-26T08:33:08.971Z,26.79
2022-08-26T08:35:37.116Z,26.72
2022-08-26T08:38:07.036Z,26.38
2022-08-26T08:40:33.604Z,26.47
2022-08-26T08:43:09.466Z,26.45
2022-08-26T08:45:47.245Z,26.45
2022-08-26T08:48:28.042Z,26.54
2022-08-26T08:51:03.915Z,26.46
2022-08-26T08:53:38.318Z,26.47
2022-08-26T08:56:37.274Z,26.36
2022-08-26T08:59:15.172Z,26.37
2022-08-26T09:01:41.573Z,26.48
2022-08-26T09:04:27.894Z,26.63
2022-08-26T09:09:38.248Z,26.89
2022-08-26T09:12:11.164Z,26.85
2022-08-26T09:14:37.549Z,26.92
2022-08-26T09:17:17.599Z,26.89
2022-08-26T09:19:52.120Z,26.75
2022-08-26T09:22:37.074Z,27.03
2022-08-26T09:25:11.228Z,27.19
2022-08-26T09:27:40.545Z,27.24
2022-08-26T09:30:08.288Z,27.33
2022-08-26T09:32:38.780Z,27.31
2022-08-26T09:35:24.079Z,27.19
2022-08-26T09:40:27.092Z,28.37
2022-08-26T09:43:10.910Z,28.71
2022-08-26T09:45:39.169Z,28.97
2022-08-26T09:48:06.543Z,29.28
2022-08-26T09:50:49.190Z,29.44
2022-08-26T09:53:17.677Z,28.99
2022-08-26T09:55:51.403Z,29.23
2022-08-26T09:58:37.828Z,29.39
2022-08-26T10:01:14.668Z,29.37
2022-08-26T10:03:42.838Z,29.11
2022-08-26T10:06:18.194Z,28.68
2022-08-26T10:08:58.592Z,29.11
2022-08-26T10:11:37.868Z,28.76
2022-08-26T10:14:14.037Z,27.73
2022-08-26T10:16:41.470Z,27.62
2022-08-26T10:19:16.621Z,27.32
2022-08-26T10:22:05.739Z,27.76
2022-08-26T10:24:42.792Z,26.96
2022-08-26T10:27:21.530Z,27.02
2022-08-26T10:29:51.689Z,27.29
2022-08-26T10:32:25.930Z,27.48
2022-08-26T10:34:54.313Z,27.73
2022-08-26T10:37:26.994Z,27.85
2022-08-26T10:40:02.474Z,28.24
2022-08-26T10:42:38.554Z,28.82
2022-08-26T10:45:11.902Z,29.28
2022-08-26T10:47:58.465Z,29.62
2022-08-26T10:50:30.950Z,29.84
2022-08-26T10:53:32.906Z,28.86
2022-08-26T10:56:15.751Z,28.81
2022-08-26T10:59:06.397Z,29.00
2022-08-26T11:01:50.851Z,28.51
2022-08-26T11:04:34.870Z,28.31
2022-08-26T11:07:37.459Z,28.61
2022-08-26T11:10:08.637Z,28.17
2022-08-26T11:12:35.113Z,27.88
2022-08-26T11:15:09.991Z,27.17
2022-08-26T11:17:45.458Z,27.29
2022-08-26T11:20:30.122Z,27.53
2022-08-26T11:23:35.383Z,27.67
2022-08-26T11:26:07.777Z,28.10
2022-08-26T11:28:49.925Z,28.48
2022-08-26T11:31:19.364Z,28.36
2022-08-26T11:33:51.192Z,27.76
2022-08-26T11:36:45.563Z,27.42
2022-08-26T11:39:29.284Z,27.46
2022-08-26T11:42:01.374Z,27.36
2022-08-26T11:44:38.777Z,27.28
2022-08-26T11:47:07.784Z,27.16
2022-08-26T11:49:38.032Z,27.14
2022-08-26T11:52:22.510Z,27.26
2022-08-26T11:55:06.581Z,27.46
2022-08-26T11:57:34.932Z,27.60
2022-08-26T12:00:02.362Z,27.85
2022-08-26T12:02:28.916Z,27.91
2022-08-26T12:04:56.740Z,28.12
2022-08-26T12:07:27.153Z,28.02
2022-08-26T12:09:58.709Z,27.79
2022-08-26T12:12:34.688Z,27.72
2022-08-26T12:15:20.477Z,27.86
2022-08-26T12:17:53.419Z,28.28
2022-08-26T12:20:40.900Z,28.36
2022-08-26T12:23:07.357Z,28.04
2022-08-26T12:25:35.954Z,27.94
2022-08-26T12:28:05.508Z,28.24
2022-08-26T12:30:31.969Z,28.45
2022-08-26T12:33:22.957Z,28.10
2022-08-26T12:35:54.393Z,28.15
2022-08-26T12:38:23.840Z,28.51
2022-08-26T12:40:50.340Z,28.73
2022-08-26T12:43:38.766Z,28.76
2022-08-26T12:46:06.746Z,29.11
2022-08-26T12:48:36.489Z,28.93
2022-08-26T12:51:06.011Z,28.80
2022-08-26T12:53:35.456Z,29.15
2022-08-26T12:56:17.133Z,28.80
2022-08-26T12:58:43.896Z,29.20
2022-08-26T13:01:10.328Z,28.93
2022-08-26T13:03:36.737Z,28.94
2022-08-26T13:06:15.926Z,28.51
2022-08-26T13:08:45.415Z,28.67
2022-08-26T13:11:19.109Z,28.75
2022-08-26T13:13:50.054Z,28.48
2022-08-26T13:16:16.481Z,28.43
2022-08-26T13:18:42.902Z,28.34
2022-08-26T13:21:28.212Z,28.36
2022-08-26T13:24:09.707Z,28.38
2022-08-26T13:26:36.107Z,28.47
2022-08-26T13:29:04.520Z,28.50
2022-08-26T13:31:33.809Z,28.60
2022-08-26T13:34:02.252Z,28.20
2022-08-26T13:36:29.134Z,28.27
2022-08-26T13:38:55.568Z,28.35
2022-08-26T13:41:29.084Z,28.59
2022-08-26T13:43:56.534Z,28.81
2022-08-26T13:46:25.905Z,28.90
2022-08-26T13:48:52.342Z,28.36
2022-08-26T13:51:18.855Z,28.00
2022-08-26T13:53:45.192Z,27.81
2022-08-26T13:56:11.830Z,27.73
2022-08-26T13:58:38.390Z,27.40
2022-08-26T14:01:04.777Z,27.58
2022-08-26T14:03:31.225Z,27.89
2022-08-26T14:05:57.608Z,28.13
2022-08-26T14:08:24.192Z,28.10
2022-08-26T14:10:50.650Z,28.24
2022-08-26T14:13:17.134Z,28.57
2022-08-26T14:15:43.536Z,28.91
2022-08-26T14:18:13.545Z,29.12
2022-08-26T14:20:48.440Z,28.98
2022-08-26T14:23:14.926Z,29.10
2022-08-26T14:25:41.735Z,29.21
2022-08-26T14:28:08.109Z,29.63
2022-08-26T14:30:34.936Z,30.02
2022-08-26T14:33:01.316Z,30.11
2022-08-26T14:35:30.241Z,29.51
2022-08-26T14:37:57.141Z,29.04
2022-08-26T14:40:31.096Z,28.84
2022-08-26T14:42:59.203Z,29.09
2022-08-26T14:45:27.448Z,29.16
2022-08-26T14:47:55.195Z,29.15
2022-08-26T14:50:23.351Z,29.17
2022-08-26T14:52:50.828Z,29.00
2022-08-26T14:55:17.205Z,29.09
2022-08-26T14:57:43.534Z,29.72
2022-08-26T15:00:10.450Z,29.42
2022-08-26T15:02:36.856Z,28.88
2022-08-26T15:05:03.463Z,28.79
2022-08-26T15:07:29.835Z,28.07
2022-08-26T15:09:56.169Z,27.67
2022-08-26T15:12:22.510Z,27.08
2022-08-26T15:14:48.839Z,26.48
2022-08-26T15:17:15.255Z,25.32
2022-08-26T15:19:41.585Z,24.98
2022-08-26T15:22:07.919Z,24.69
2022-08-26T15:24:34.789Z,24.44
2022-08-26T15:27:01.144Z,23.83
2022-08-26T15:29:27.486Z,23.45
2022-08-26T15:31:55.274Z,22.97
2022-08-26T15:34:23.783Z,22.92
2022-08-26T15:36:50.106Z,23.27
2022-08-26T15:39:17.187Z,23.33
2022-08-26T15:41:43.622Z,23.73
2022-08-26T15:44:11.282Z,23.83
2022-08-26T15:46:38.721Z,23.69
2022-08-26T15:49:05.685Z,24.05
2022-08-26T15:51:35.102Z,23.13
2022-08-26T15:54:11.831Z,22.82
2022-08-26T15:56:38.490Z,23.11
2022-08-26T15:59:06.615Z,22.62
2022-08-26T16:01:33.548Z,22.03
2022-08-26T16:04:00.995Z,20.66
2022-08-26T16:06:31.427Z,20.01
2022-08-26T16:08:58.188Z,19.71
2022-08-26T16:11:25.479Z,19.62
2022-08-26T16:13:52.308Z,19.46
2022-08-26T16:16:18.852Z,19.41
2022-08-26T16:18:45.583Z,19.45
2022-08-26T16:21:20.515Z,19.25
2022-08-26T16:23:47.628Z,19.83
2022-08-26T16:26:19.955Z,20.21
2022-08-26T16:28:47.060Z,20.82
2022-08-26T16:31:13.845Z,21.04
2022-08-26T16:33:40.363Z,21.39
2022-08-26T16:36:08.346Z,21.70
2022-08-26T16:38:36.306Z,22.22
2022-08-26T16:41:03.389Z,22.48
2022-08-26T16:43:29.735Z,22.59
2022-08-26T16:45:56.939Z,22.36
2022-08-26T16:48:23.404Z,22.43
2022-08-26T16:50:50.525Z,22.74
2022-08-26T16:53:16.989Z,22.71
2022-08-26T16:55:47.997Z,22.67
2022-08-26T16:58:14.689Z,22.53
2022-08-26T17:00:41.095Z,22.64
2022-08-26T17:03:07.653Z,22.33
2022-08-26T17:05:34.169Z,22.72
2022-08-26T17:08:00.952Z,22.90
2022-08-26T17:10:28.728Z,22.99
2022-08-26T17:12:55.357Z,22.81
2022-08-26T17:15:21.864Z,23.16
2022-08-26T17:17:48.186Z,22.82
2022-08-26T17:20:16.541Z,22.75
2022-08-26T17:22:46.526Z,22.62
2022-08-26T17:25:16.534Z,22.64
2022-08-26T17:27:43.012Z,22.62
2022-08-26T17:30:10.374Z,22.69
2022-08-26T17:32:36.852Z,22.65
2022-08-26T17:35:04.739Z,22.68
2022-08-26T17:37:31.229Z,22.79
2022-08-26T17:39:57.709Z,22.80
2022-08-26T17:42:31.616Z,22.71
2022-08-26T17:44:58.474Z,22.54
2022-08-26T17:47:24.823Z,22.19
2022-08-26T17:49:51.317Z,21.98
2022-08-26T17:52:17.660Z,22.06
2022-08-26T17:54:44.010Z,21.95
2022-08-26T17:57:10.705Z,21.85
2022-08-26T17:59:37.327Z,21.69
2022-08-26T18:02:07.256Z,21.62
2022-08-26T18:04:33.595Z,21.65
2022-08-26T18:07:00.078Z,21.60
2022-08-26T18:09:26.499Z,21.62
2022-08-26T18:11:52.826Z,21.62
2022-08-26T18:14:19.203Z,21.60
2022-08-26T18:16:45.538Z,21.56
2022-08-26T18:19:11.909Z,21.56
2022-08-26T18:21:38.262Z,21.46
2022-08-26T18:24:04.966Z,21.31
2022-08-26T18:26:35.654Z,21.21
2022-08-26T18:29:02.881Z,21.14
2022-08-26T18:31:30.001Z,21.08
2022-08-26T18:33:58.503Z,21.07
2022-08-26T18:36:28.611Z,21.10
2022-08-26T18:38:55.943Z,21.15
2022-08-26T18:41:24.725Z,21.08
2022-08-26T18:43:52.528Z,21.17
2022-08-26T18:46:20.446Z,21.18
2022-08-26T18:48:51.010Z,21.12
2022-08-26T18:51:20.796Z,21.09
2022-08-26T18:53:47.182Z,20.99
2022-08-26T18:56:16.621Z,21.06
2022-08-26T18:58:45.494Z,21.03
2022-08-26T19:01:13.261Z,20.95
2022-08-26T19:03:40.046Z,20.98
2022-08-26T19:06:06.829Z,21.04
2022-08-26T19:08:33.187Z,20.92
2022-08-26T19:11:00.242Z,20.97
2022-08-26T19:13:26.691Z,21.04
2022-08-26T19:15:53.032Z,21.09
2022-08-26T19:18:19.383Z,21.11
2022-08-26T19:20:46.907Z,21.11
2022-08-26T19:23:30.823Z,21.11
2022-08-26T19:25:58.322Z,21.08
2022-08-26T19:28:24.750Z,21.04
2022-08-26T19:30:53.109Z,20.98
2022-08-26T19:33:19.858Z,20.94
2022-08-26T19:35:46.260Z,20.94
2022-08-26T19:38:13.739Z,20.88
2022-08-26T19:40:40.809Z,20.81
2022-08-26T19:43:07.840Z,20.78
2022-08-26T19:45:35.018Z,20.64
2022-08-26T19:48:02.511Z,20.63
2022-08-26T19:50:31.938Z,20.54
2022-08-26T19:52:59.112Z,20.43
2022-08-26T19:55:25.671Z,20.49
2022-08-26T19:57:52.303Z,20.47
2022-08-26T20:00:22.072Z,20.45
2022-08-26T20:02:48.455Z,20.28
2022-08-26T20:05:15.878Z,20.21
2022-08-26T20:07:42.611Z,20.21
2022-08-26T20:10:11.798Z,20.21
2022-08-26T20:12:38.853Z,20.11
2022-08-26T20:15:05.823Z,20.11
2022-08-26T20:17:32.846Z,20.11
2022-08-26T20:19:59.185Z,20.11
2022-08-26T20:22:25.525Z,20.04
2022-08-26T20:24:51.879Z,20.02
2022-08-26T20:27:18.227Z,20.03
2022-08-26T20:29:44.550Z,19.98
2022-08-26T20:32:10.916Z,20.01
2022-08-26T20:34:37.472Z,20.07
2022-08-26T20:37:04.405Z,19.94
2022-08-26T20:39:30.757Z,19.90
2022-08-26T20:41:58.541Z,19.94
2022-08-26T20:44:26.181Z,19.93
2022-08-26T20:46:52.687Z,20.00
2022-08-26T20:49:19.040Z,19.93
2022-08-26T20:51:48.550Z,19.99
2022-08-26T20:54:14.885Z,20.07
2022-08-26T20:56:41.239Z,19.99
2022-08-26T20:59:08.099Z,20.07
2022-08-26T21:01:36.517Z,20.08
2022-08-26T21:04:09.485Z,20.08
2022-08-26T21:06:36.429Z,19.92
2022-08-26T21:09:05.238Z,19.95
2022-08-26T21:11:32.043Z,19.87
2022-08-26T21:14:06.739Z,19.95
2022-08-26T21:16:35.298Z,19.88
2022-08-26T21:19:02.450Z,20.00
2022-08-26T21:21:28.890Z,19.92
2022-08-26T21:23:55.571Z,19.95
2022-08-26T21:26:22.603Z,19.92
2022-08-26T21:28:49.442Z,19.93
2022-08-26T21:31:18.490Z,19.96
2022-08-26T21:33:44.865Z,19.86
2022-08-26T21:36:12.695Z,19.92
2022-08-26T21:38:39.978Z,19.91
2022-08-26T21:41:15.194Z,19.86
2022-08-26T21:43:42.657Z,19.92
2022-08-26T21:46:11.841Z,19.89
2022-08-26T21:48:39.543Z,19.83
2022-08-26T21:51:06.563Z,19.82
2022-08-26T21:53:32.945Z,19.81
2022-08-26T21:55:59.399Z,19.64
2022-08-26T21:58:25.782Z,19.64
2022-08-26T22:00:52.282Z,19.57
2022-08-26T22:03:18.667Z,19.41
2022-08-26T22:05:47.385Z,19.41
2022-08-26T22:08:13.730Z,19.40
2022-08-26T22:10:41.498Z,19.45
2022-08-26T22:13:11.190Z,19.48
2022-08-26T22:15:37.583Z,19.56
2022-08-26T22:18:05.058Z,19.64
2022-08-26T22:20:31.537Z,19.62
2022-08-26T22:22:58.602Z,19.59
2022-08-26T22:25:25.505Z,19.50
2022-08-26T22:27:51.857Z,19.55
2022-08-26T22:30:18.421Z,19.59
2022-08-26T22:32:45.050Z,19.55
2022-08-26T22:35:29.046Z,19.51
2022-08-26T22:37:57.197Z,19.51
2022-08-26T22:40:23.729Z,19.47
2022-08-26T22:42:57.926Z,19.39
2022-08-26T22:45:26.539Z,19.33
2022-08-26T22:47:52.932Z,19.36
2022-08-26T22:50:19.362Z,19.37
2022-08-26T22:52:45.710Z,19.37
2022-08-26T22:55:12.048Z,19.40
2022-08-26T22:57:38.389Z,19.32
2022-08-26T23:00:05.354Z,19.27
2022-08-26T23:02:31.974Z,19.22
2022-08-26T23:04:58.312Z,19.23
2022-08-26T23:07:24.675Z,19.12
2022-08-26T23:09:51.009Z,19.17
2022-08-26T23:12:17.365Z,19.17
2022-08-26T23:14:43.696Z,19.07
2022-08-26T23:17:11.819Z,19.12
2022-08-26T23:19:38.146Z,19.16
2022-08-26T23:22:04.630Z,19.13
2022-08-26T23:24:31.599Z,19.10
2022-08-26T23:26:58.143Z,19.19
2022-08-26T23:29:24.504Z,19.20
2022-08-26T23:31:50.926Z,19.21
2022-08-26T23:34:17.316Z,19.14
2022-08-26T23:36:44.610Z,19.12
2022-08-26T23:39:12.814Z,19.04
2022-08-26T23:41:39.254Z,19.00
2022-08-26T23:44:05.922Z,18.86
2022-08-26T23:46:34.421Z,18.82
2022-08-26T23:49:01.126Z,18.71
2022-08-26T23:51:27.459Z,18.70
2022-08-26T23:53:53.841Z,18.70
2022-08-26T23:56:20.249Z,18.68
2022-08-26T23:58:47.078Z,18.72
